sensor_id;sensor_type;location;lat;lon;timestamp;P1;durP1;ratioP1;P2;durP2;ratioP2
3433;SDS011;1730;41.932;25.548;2023-04-16T00:00:21;6.93;;;2.43;;
3433;SDS011;1730;41.932;25.548;2023-04-16T00:02:46;3.87;;;2.17;;
3433;SDS011;1730;41.932;25.548;2023-04-16T00:05:12;6.67;;;2.37;;
3433;SDS011;1730;41.932;25.548;2023-04-16T00:07:38;3.87;;;2.70;;
3433;SDS011;1730;41.932;25.548;2023-04-16T00:10:05;8.83;;;2.63;;
3433;SDS011;1730;41.932;25.548;2023-04-16T00:12:31;9.73;;;2.60;;
3433;SDS011;1730;41.932;25.548;2023-04-16T00:14:56;10.40;;;2.67;;
3433;SDS011;1730;41.932;25.548;2023-04-16T00:17:22;5.70;;;2.60;;
3433;SDS011;1730;41.932;25.548;2023-04-16T00:19:47;2.87;;;2.10;;
3433;SDS011;1730;41.932;25.548;2023-04-16T00:22:13;8.23;;;2.40;;
3433;SDS011;1730;41.932;25.548;2023-04-16T00:24:38;5.80;;;2.10;;
3433;SDS011;1730;41.932;25.548;2023-04-16T00:27:05;5.50;;;2.20;;
3433;SDS011;1730;41.932;25.548;2023-04-16T00:29:30;4.37;;;2.40;;
3433;SDS011;1730;41.932;25.548;2023-04-16T00:31:57;6.90;;;2.63;;
3433;SDS011;1730;41.932;25.548;2023-04-16T00:34:23;7.43;;;2.43;;
3433;SDS011;1730;41.932;25.548;2023-04-16T00:36:48;5.23;;;3.40;;
3433;SDS011;1730;41.932;25.548;2023-04-16T00:39:14;5.33;;;2.60;;
3433;SDS011;1730;41.932;25.548;2023-04-16T00:41:40;5.30;;;3.30;;
3433;SDS011;1730;41.932;25.548;2023-04-16T00:44:06;7.43;;;2.87;;
3433;SDS011;1730;41.932;25.548;2023-04-16T00:46:32;4.40;;;2.60;;
3433;SDS011;1730;41.932;25.548;2023-04-16T00:48:59;4.87;;;3.07;;
3433;SDS011;1730;41.932;25.548;2023-04-16T00:51:25;5.53;;;3.03;;
3433;SDS011;1730;41.932;25.548;2023-04-16T00:53:51;4.63;;;2.60;;
3433;SDS011;1730;41.932;25.548;2023-04-16T00:56:17;7.33;;;2.70;;
3433;SDS011;1730;41.932;25.548;2023-04-16T00:58:43;4.40;;;2.67;;
3433;SDS011;1730;41.932;25.548;2023-04-16T01:01:09;7.00;;;2.60;;
3433;SDS011;1730;41.932;25.548;2023-04-16T01:03:38;7.53;;;2.60;;
3433;SDS011;1730;41.932;25.548;2023-04-16T01:06:09;7.20;;;2.80;;
3433;SDS011;1730;41.932;25.548;2023-04-16T01:08:35;4.40;;;2.10;;
3433;SDS011;1730;41.932;25.548;2023-04-16T01:11:01;9.77;;;2.80;;
3433;SDS011;1730;41.932;25.548;2023-04-16T01:13:26;4.70;;;2.50;;
3433;SDS011;1730;41.932;25.548;2023-04-16T01:15:52;7.80;;;2.70;;
3433;SDS011;1730;41.932;25.548;2023-04-16T01:18:18;5.67;;;2.70;;
3433;SDS011;1730;41.932;25.548;2023-04-16T01:20:48;6.90;;;3.03;;
3433;SDS011;1730;41.932;25.548;2023-04-16T01:23:15;4.00;;;3.00;;
3433;SDS011;1730;41.932;25.548;2023-04-16T01:25:42;8.40;;;2.67;;
3433;SDS011;1730;41.932;25.548;2023-04-16T01:28:09;6.03;;;2.90;;
3433;SDS011;1730;41.932;25.548;2023-04-16T01:30:34;5.13;;;2.80;;
3433;SDS011;1730;41.932;25.548;2023-04-16T01:33:00;9.90;;;2.43;;
3433;SDS011;1730;41.932;25.548;2023-04-16T01:35:26;4.80;;;2.73;;
3433;SDS011;1730;41.932;25.548;2023-04-16T01:37:51;7.60;;;3.07;;
3433;SDS011;1730;41.932;25.548;2023-04-16T01:40:17;8.47;;;4.50;;
3433;SDS011;1730;41.932;25.548;2023-04-16T01:42:43;2.90;;;2.60;;
3433;SDS011;1730;41.932;25.548;2023-04-16T01:45:08;7.90;;;2.77;;
3433;SDS011;1730;41.932;25.548;2023-04-16T01:47:35;7.43;;;2.77;;
3433;SDS011;1730;41.932;25.548;2023-04-16T01:50:01;5.40;;;2.03;;
3433;SDS011;1730;41.932;25.548;2023-04-16T01:52:27;4.33;;;2.30;;
3433;SDS011;1730;41.932;25.548;2023-04-16T01:54:52;5.77;;;2.70;;
3433;SDS011;1730;41.932;25.548;2023-04-16T01:57:18;9.87;;;2.60;;
3433;SDS011;1730;41.932;25.548;2023-04-16T01:59:44;6.73;;;3.00;;
3433;SDS011;1730;41.932;25.548;2023-04-16T02:02:11;3.33;;;2.40;;
3433;SDS011;1730;41.932;25.548;2023-04-16T02:04:39;4.50;;;2.50;;
3433;SDS011;1730;41.932;25.548;2023-04-16T02:07:06;6.10;;;2.43;;
3433;SDS011;1730;41.932;25.548;2023-04-16T02:09:33;2.90;;;2.67;;
3433;SDS011;1730;41.932;25.548;2023-04-16T02:12:02;4.63;;;2.50;;
3433;SDS011;1730;41.932;25.548;2023-04-16T02:14:28;6.63;;;2.80;;
3433;SDS011;1730;41.932;25.548;2023-04-16T02:16:54;4.57;;;3.13;;
3433;SDS011;1730;41.932;25.548;2023-04-16T02:19:20;4.27;;;2.63;;
3433;SDS011;1730;41.932;25.548;2023-04-16T02:21:45;3.53;;;3.10;;
3433;SDS011;1730;41.932;25.548;2023-04-16T02:24:11;6.70;;;3.17;;
3433;SDS011;1730;41.932;25.548;2023-04-16T02:26:37;8.63;;;3.20;;
3433;SDS011;1730;41.932;25.548;2023-04-16T02:29:03;6.60;;;3.10;;
3433;SDS011;1730;41.932;25.548;2023-04-16T02:31:28;6.80;;;3.27;;
3433;SDS011;1730;41.932;25.548;2023-04-16T02:33:54;8.73;;;3.40;;
3433;SDS011;1730;41.932;25.548;2023-04-16T02:36:20;9.43;;;3.70;;
3433;SDS011;1730;41.932;25.548;2023-04-16T02:38:45;10.13;;;3.37;;
3433;SDS011;1730;41.932;25.548;2023-04-16T02:41:11;7.70;;;3.40;;
3433;SDS011;1730;41.932;25.548;2023-04-16T02:43:36;9.60;;;3.70;;
3433;SDS011;1730;41.932;25.548;2023-04-16T02:46:02;5.27;;;3.30;;
3433;SDS011;1730;41.932;25.548;2023-04-16T02:48:28;5.93;;;3.27;;
3433;SDS011;1730;41.932;25.548;2023-04-16T02:50:53;5.80;;;3.33;;
3433;SDS011;1730;41.932;25.548;2023-04-16T02:53:19;5.90;;;3.33;;
3433;SDS011;1730;41.932;25.548;2023-04-16T02:55:52;10.10;;;3.70;;
3433;SDS011;1730;41.932;25.548;2023-04-16T02:58:22;7.23;;;3.27;;
3433;SDS011;1730;41.932;25.548;2023-04-16T03:00:49;10.60;;;3.23;;
3433;SDS011;1730;41.932;25.548;2023-04-16T03:03:16;4.37;;;3.27;;
3433;SDS011;1730;41.932;25.548;2023-04-16T03:05:41;7.03;;;3.33;;
3433;SDS011;1730;41.932;25.548;2023-04-16T03:08:07;9.23;;;3.27;;
3433;SDS011;1730;41.932;25.548;2023-04-16T03:10:32;8.50;;;3.07;;
3433;SDS011;1730;41.932;25.548;2023-04-16T03:12:59;9.23;;;3.80;;
3433;SDS011;1730;41.932;25.548;2023-04-16T03:15:25;10.63;;;3.83;;
3433;SDS011;1730;41.932;25.548;2023-04-16T03:17:51;8.60;;;3.97;;
3433;SDS011;1730;41.932;25.548;2023-04-16T03:20:17;11.83;;;3.53;;
3433;SDS011;1730;41.932;25.548;2023-04-16T03:22:44;8.87;;;3.80;;
3433;SDS011;1730;41.932;25.548;2023-04-16T03:25:10;5.07;;;3.40;;
3433;SDS011;1730;41.932;25.548;2023-04-16T03:27:36;6.80;;;3.50;;
3433;SDS011;1730;41.932;25.548;2023-04-16T03:30:04;7.27;;;3.77;;
3433;SDS011;1730;41.932;25.548;2023-04-16T03:32:32;9.00;;;3.20;;
3433;SDS011;1730;41.932;25.548;2023-04-16T03:34:58;6.80;;;4.70;;
3433;SDS011;1730;41.932;25.548;2023-04-16T03:37:24;8.23;;;3.77;;
3433;SDS011;1730;41.932;25.548;2023-04-16T03:39:51;11.03;;;4.40;;
3433;SDS011;1730;41.932;25.548;2023-04-16T03:42:16;9.70;;;4.33;;
3433;SDS011;1730;41.932;25.548;2023-04-16T03:44:42;9.10;;;4.07;;
3433;SDS011;1730;41.932;25.548;2023-04-16T03:47:07;8.83;;;4.10;;
3433;SDS011;1730;41.932;25.548;2023-04-16T03:49:33;11.10;;;4.90;;
3433;SDS011;1730;41.932;25.548;2023-04-16T03:51:58;6.73;;;4.97;;
3433;SDS011;1730;41.932;25.548;2023-04-16T03:54:24;20.13;;;5.20;;
3433;SDS011;1730;41.932;25.548;2023-04-16T03:56:49;8.40;;;6.17;;
3433;SDS011;1730;41.932;25.548;2023-04-16T03:59:16;8.70;;;6.70;;
3433;SDS011;1730;41.932;25.548;2023-04-16T04:01:42;7.67;;;5.00;;
3433;SDS011;1730;41.932;25.548;2023-04-16T04:04:07;8.60;;;5.57;;
3433;SDS011;1730;41.932;25.548;2023-04-16T04:06:34;10.93;;;5.17;;
3433;SDS011;1730;41.932;25.548;2023-04-16T04:08:59;13.40;;;5.03;;
3433;SDS011;1730;41.932;25.548;2023-04-16T04:11:25;13.07;;;6.03;;
3433;SDS011;1730;41.932;25.548;2023-04-16T04:13:50;9.57;;;5.70;;
3433;SDS011;1730;41.932;25.548;2023-04-16T04:16:16;8.90;;;5.60;;
3433;SDS011;1730;41.932;25.548;2023-04-16T04:18:41;7.17;;;4.03;;
3433;SDS011;1730;41.932;25.548;2023-04-16T04:21:07;10.20;;;3.77;;
3433;SDS011;1730;41.932;25.548;2023-04-16T04:23:36;8.57;;;3.73;;
3433;SDS011;1730;41.932;25.548;2023-04-16T04:26:02;13.40;;;4.10;;
3433;SDS011;1730;41.932;25.548;2023-04-16T04:28:30;17.00;;;4.27;;
3433;SDS011;1730;41.932;25.548;2023-04-16T04:30:57;9.30;;;4.67;;
3433;SDS011;1730;41.932;25.548;2023-04-16T04:33:24;7.40;;;4.03;;
3433;SDS011;1730;41.932;25.548;2023-04-16T04:35:50;6.53;;;4.37;;
3433;SDS011;1730;41.932;25.548;2023-04-16T04:38:16;11.70;;;4.53;;
3433;SDS011;1730;41.932;25.548;2023-04-16T04:40:44;11.40;;;4.83;;
3433;SDS011;1730;41.932;25.548;2023-04-16T04:43:10;9.77;;;4.63;;
3433;SDS011;1730;41.932;25.548;2023-04-16T04:45:35;12.80;;;4.50;;
3433;SDS011;1730;41.932;25.548;2023-04-16T04:48:01;8.23;;;4.30;;
3433;SDS011;1730;41.932;25.548;2023-04-16T04:50:26;8.50;;;5.93;;
3433;SDS011;1730;41.932;25.548;2023-04-16T04:52:51;7.50;;;5.00;;
3433;SDS011;1730;41.932;25.548;2023-04-16T04:55:17;5.63;;;4.90;;
3433;SDS011;1730;41.932;25.548;2023-04-16T04:57:43;7.33;;;3.93;;
3433;SDS011;1730;41.932;25.548;2023-04-16T05:00:09;8.20;;;4.70;;
3433;SDS011;1730;41.932;25.548;2023-04-16T05:02:35;9.63;;;5.17;;
3433;SDS011;1730;41.932;25.548;2023-04-16T05:05:00;12.70;;;5.43;;
3433;SDS011;1730;41.932;25.548;2023-04-16T05:07:26;9.57;;;5.20;;
3433;SDS011;1730;41.932;25.548;2023-04-16T05:09:51;12.20;;;6.30;;
3433;SDS011;1730;41.932;25.548;2023-04-16T05:12:16;14.27;;;5.40;;
3433;SDS011;1730;41.932;25.548;2023-04-16T05:14:42;8.70;;;5.67;;
3433;SDS011;1730;41.932;25.548;2023-04-16T05:17:08;7.37;;;5.33;;
3433;SDS011;1730;41.932;25.548;2023-04-16T05:19:35;9.50;;;7.17;;
3433;SDS011;1730;41.932;25.548;2023-04-16T05:22:01;10.50;;;6.57;;
3433;SDS011;1730;41.932;25.548;2023-04-16T05:24:27;12.57;;;6.00;;
3433;SDS011;1730;41.932;25.548;2023-04-16T05:26:53;11.57;;;6.20;;
3433;SDS011;1730;41.932;25.548;2023-04-16T05:29:18;17.87;;;9.40;;
3433;SDS011;1730;41.932;25.548;2023-04-16T05:31:44;12.53;;;7.63;;
3433;SDS011;1730;41.932;25.548;2023-04-16T05:34:09;15.57;;;9.30;;
3433;SDS011;1730;41.932;25.548;2023-04-16T05:36:35;15.67;;;8.20;;
3433;SDS011;1730;41.932;25.548;2023-04-16T05:39:00;12.97;;;7.27;;
3433;SDS011;1730;41.932;25.548;2023-04-16T05:41:26;11.33;;;7.70;;
3433;SDS011;1730;41.932;25.548;2023-04-16T05:43:52;12.33;;;7.83;;
3433;SDS011;1730;41.932;25.548;2023-04-16T05:46:17;13.60;;;9.30;;
3433;SDS011;1730;41.932;25.548;2023-04-16T05:48:43;15.70;;;8.40;;
3433;SDS011;1730;41.932;25.548;2023-04-16T05:51:08;20.93;;;9.70;;
3433;SDS011;1730;41.932;25.548;2023-04-16T05:53:33;15.20;;;8.80;;
3433;SDS011;1730;41.932;25.548;2023-04-16T05:55:59;14.53;;;7.40;;
3433;SDS011;1730;41.932;25.548;2023-04-16T05:58:24;6.90;;;6.17;;
3433;SDS011;1730;41.932;25.548;2023-04-16T06:00:50;6.33;;;5.70;;
3433;SDS011;1730;41.932;25.548;2023-04-16T06:03:15;11.40;;;7.77;;
3433;SDS011;1730;41.932;25.548;2023-04-16T06:05:41;13.30;;;8.63;;
3433;SDS011;1730;41.932;25.548;2023-04-16T06:08:06;9.83;;;7.23;;
3433;SDS011;1730;41.932;25.548;2023-04-16T06:10:32;14.20;;;7.33;;
3433;SDS011;1730;41.932;25.548;2023-04-16T06:12:57;9.00;;;6.57;;
3433;SDS011;1730;41.932;25.548;2023-04-16T06:15:23;11.10;;;6.63;;
3433;SDS011;1730;41.932;25.548;2023-04-16T06:17:48;9.90;;;8.27;;
3433;SDS011;1730;41.932;25.548;2023-04-16T06:20:14;14.37;;;8.50;;
3433;SDS011;1730;41.932;25.548;2023-04-16T06:22:40;11.20;;;8.33;;
3433;SDS011;1730;41.932;25.548;2023-04-16T06:25:05;10.57;;;8.00;;
3433;SDS011;1730;41.932;25.548;2023-04-16T06:27:31;9.53;;;8.60;;
3433;SDS011;1730;41.932;25.548;2023-04-16T06:29:57;11.20;;;8.20;;
3433;SDS011;1730;41.932;25.548;2023-04-16T06:32:22;17.20;;;10.67;;
3433;SDS011;1730;41.932;25.548;2023-04-16T06:34:49;13.43;;;9.77;;
3433;SDS011;1730;41.932;25.548;2023-04-16T06:37:14;18.63;;;11.17;;
3433;SDS011;1730;41.932;25.548;2023-04-16T06:39:40;16.20;;;10.03;;
3433;SDS011;1730;41.932;25.548;2023-04-16T06:42:06;15.47;;;8.90;;
3433;SDS011;1730;41.932;25.548;2023-04-16T06:44:31;9.13;;;7.27;;
3433;SDS011;1730;41.932;25.548;2023-04-16T06:46:57;15.20;;;8.40;;
3433;SDS011;1730;41.932;25.548;2023-04-16T06:49:22;10.33;;;7.43;;
3433;SDS011;1730;41.932;25.548;2023-04-16T06:51:48;22.90;;;7.80;;
3433;SDS011;1730;41.932;25.548;2023-04-16T06:54:13;13.03;;;8.27;;
3433;SDS011;1730;41.932;25.548;2023-04-16T06:56:39;15.10;;;6.53;;
3433;SDS011;1730;41.932;25.548;2023-04-16T06:59:04;7.07;;;5.83;;
3433;SDS011;1730;41.932;25.548;2023-04-16T07:01:30;12.03;;;7.13;;
3433;SDS011;1730;41.932;25.548;2023-04-16T07:03:56;14.20;;;8.57;;
3433;SDS011;1730;41.932;25.548;2023-04-16T07:06:22;9.10;;;7.50;;
3433;SDS011;1730;41.932;25.548;2023-04-16T07:08:47;16.07;;;7.73;;
3433;SDS011;1730;41.932;25.548;2023-04-16T07:11:13;17.43;;;8.07;;
3433;SDS011;1730;41.932;25.548;2023-04-16T07:13:38;12.30;;;8.03;;
3433;SDS011;1730;41.932;25.548;2023-04-16T07:16:04;21.13;;;7.60;;
3433;SDS011;1730;41.932;25.548;2023-04-16T07:18:30;15.20;;;8.20;;
3433;SDS011;1730;41.932;25.548;2023-04-16T07:20:56;11.30;;;7.23;;
3433;SDS011;1730;41.932;25.548;2023-04-16T07:23:21;14.30;;;6.57;;
3433;SDS011;1730;41.932;25.548;2023-04-16T07:25:47;11.40;;;6.63;;
3433;SDS011;1730;41.932;25.548;2023-04-16T07:28:12;9.57;;;6.70;;
3433;SDS011;1730;41.932;25.548;2023-04-16T07:30:40;14.83;;;7.70;;
3433;SDS011;1730;41.932;25.548;2023-04-16T07:33:06;11.23;;;6.20;;
3433;SDS011;1730;41.932;25.548;2023-04-16T07:35:31;11.60;;;6.37;;
3433;SDS011;1730;41.932;25.548;2023-04-16T07:37:57;15.17;;;6.30;;
3433;SDS011;1730;41.932;25.548;2023-04-16T07:40:22;9.37;;;5.07;;
3433;SDS011;1730;41.932;25.548;2023-04-16T07:42:48;8.80;;;5.90;;
3433;SDS011;1730;41.932;25.548;2023-04-16T07:45:14;6.40;;;5.10;;
3433;SDS011;1730;41.932;25.548;2023-04-16T07:47:40;12.03;;;6.13;;
3433;SDS011;1730;41.932;25.548;2023-04-16T07:50:05;10.50;;;5.90;;
3433;SDS011;1730;41.932;25.548;2023-04-16T07:52:31;10.73;;;6.13;;
3433;SDS011;1730;41.932;25.548;2023-04-16T07:54:57;14.47;;;5.93;;
3433;SDS011;1730;41.932;25.548;2023-04-16T07:57:22;16.47;;;5.93;;
3433;SDS011;1730;41.932;25.548;2023-04-16T07:59:48;13.60;;;6.20;;
3433;SDS011;1730;41.932;25.548;2023-04-16T08:02:13;8.50;;;4.97;;
3433;SDS011;1730;41.932;25.548;2023-04-16T08:04:41;12.60;;;6.10;;
3433;SDS011;1730;41.932;25.548;2023-04-16T08:07:07;10.53;;;5.40;;
3433;SDS011;1730;41.932;25.548;2023-04-16T08:09:32;10.33;;;5.10;;
3433;SDS011;1730;41.932;25.548;2023-04-16T08:12:00;24.63;;;5.40;;
3433;SDS011;1730;41.932;25.548;2023-04-16T08:14:25;11.17;;;6.17;;
3433;SDS011;1730;41.932;25.548;2023-04-16T08:16:51;11.03;;;4.70;;
3433;SDS011;1730;41.932;25.548;2023-04-16T08:19:16;10.77;;;5.33;;
3433;SDS011;1730;41.932;25.548;2023-04-16T08:21:42;9.23;;;4.77;;
3433;SDS011;1730;41.932;25.548;2023-04-16T08:24:07;11.73;;;4.83;;
3433;SDS011;1730;41.932;25.548;2023-04-16T08:26:33;12.77;;;5.07;;
3433;SDS011;1730;41.932;25.548;2023-04-16T08:28:58;16.83;;;5.30;;
3433;SDS011;1730;41.932;25.548;2023-04-16T08:31:24;9.37;;;4.80;;
3433;SDS011;1730;41.932;25.548;2023-04-16T08:33:50;13.83;;;5.13;;
3433;SDS011;1730;41.932;25.548;2023-04-16T08:36:15;10.33;;;5.17;;
3433;SDS011;1730;41.932;25.548;2023-04-16T08:38:40;20.93;;;9.73;;
3433;SDS011;1730;41.932;25.548;2023-04-16T08:41:06;10.30;;;4.87;;
3433;SDS011;1730;41.932;25.548;2023-04-16T08:43:36;12.13;;;4.63;;
3433;SDS011;1730;41.932;25.548;2023-04-16T08:46:03;11.90;;;5.30;;
3433;SDS011;1730;41.932;25.548;2023-04-16T08:48:31;9.80;;;5.13;;
3433;SDS011;1730;41.932;25.548;2023-04-16T08:50:59;7.30;;;4.60;;
3433;SDS011;1730;41.932;25.548;2023-04-16T08:53:28;8.13;;;5.30;;
3433;SDS011;1730;41.932;25.548;2023-04-16T08:56:00;13.90;;;5.17;;
3433;SDS011;1730;41.932;25.548;2023-04-16T08:58:29;12.50;;;4.60;;
3433;SDS011;1730;41.932;25.548;2023-04-16T09:00:59;11.20;;;5.20;;
3433;SDS011;1730;41.932;25.548;2023-04-16T09:03:27;9.63;;;4.70;;
3433;SDS011;1730;41.932;25.548;2023-04-16T09:05:54;10.50;;;5.13;;
3433;SDS011;1730;41.932;25.548;2023-04-16T09:08:24;13.90;;;5.83;;
3433;SDS011;1730;41.932;25.548;2023-04-16T09:10:50;8.80;;;5.50;;
3433;SDS011;1730;41.932;25.548;2023-04-16T09:13:17;11.97;;;4.73;;
3433;SDS011;1730;41.932;25.548;2023-04-16T09:15:44;9.37;;;5.30;;
3433;SDS011;1730;41.932;25.548;2023-04-16T09:18:10;8.70;;;4.70;;
3433;SDS011;1730;41.932;25.548;2023-04-16T09:20:36;7.40;;;4.40;;
3433;SDS011;1730;41.932;25.548;2023-04-16T09:23:03;19.10;;;5.63;;
3433;SDS011;1730;41.932;25.548;2023-04-16T09:25:32;16.83;;;5.30;;
3433;SDS011;1730;41.932;25.548;2023-04-16T09:27:59;17.47;;;5.60;;
3433;SDS011;1730;41.932;25.548;2023-04-16T09:30:25;11.80;;;5.93;;
3433;SDS011;1730;41.932;25.548;2023-04-16T09:33:10;8.33;;;4.63;;
3433;SDS011;1730;41.932;25.548;2023-04-16T09:35:43;14.80;;;4.93;;
3433;SDS011;1730;41.932;25.548;2023-04-16T09:38:10;13.07;;;6.10;;
3433;SDS011;1730;41.932;25.548;2023-04-16T09:40:36;8.37;;;4.53;;
3433;SDS011;1730;41.932;25.548;2023-04-16T09:43:08;17.83;;;5.80;;
3433;SDS011;1730;41.932;25.548;2023-04-16T09:45:51;11.10;;;6.33;;
3433;SDS011;1730;41.932;25.548;2023-04-16T09:48:31;16.63;;;8.23;;
3433;SDS011;1730;41.932;25.548;2023-04-16T09:50:58;14.10;;;7.70;;
3433;SDS011;1730;41.932;25.548;2023-04-16T09:53:29;16.83;;;7.93;;
3433;SDS011;1730;41.932;25.548;2023-04-16T09:55:56;12.83;;;6.97;;
3433;SDS011;1730;41.932;25.548;2023-04-16T09:58:23;13.63;;;6.97;;
3433;SDS011;1730;41.932;25.548;2023-04-16T10:01:02;18.60;;;7.20;;
3433;SDS011;1730;41.932;25.548;2023-04-16T10:03:34;15.67;;;6.50;;
3433;SDS011;1730;41.932;25.548;2023-04-16T10:08:41;14.10;;;6.30;;
3433;SDS011;1730;41.932;25.548;2023-04-16T10:11:16;10.43;;;4.90;;
3433;SDS011;1730;41.932;25.548;2023-04-16T10:13:43;15.27;;;4.83;;
3433;SDS011;1730;41.932;25.548;2023-04-16T10:16:09;9.40;;;5.17;;
3433;SDS011;1730;41.932;25.548;2023-04-16T10:18:38;14.17;;;6.23;;
3433;SDS011;1730;41.932;25.548;2023-04-16T10:21:05;13.90;;;7.00;;
3433;SDS011;1730;41.932;25.548;2023-04-16T10:23:32;11.90;;;7.90;;
3433;SDS011;1730;41.932;25.548;2023-04-16T10:25:58;13.87;;;7.10;;
3433;SDS011;1730;41.932;25.548;2023-04-16T10:28:25;17.93;;;9.50;;
3433;SDS011;1730;41.932;25.548;2023-04-16T10:30:53;17.20;;;8.80;;
3433;SDS011;1730;41.932;25.548;2023-04-16T10:33:21;14.80;;;8.90;;
3433;SDS011;1730;41.932;25.548;2023-04-16T10:35:51;15.10;;;8.97;;
3433;SDS011;1730;41.932;25.548;2023-04-16T10:38:21;11.50;;;8.93;;
3433;SDS011;1730;41.932;25.548;2023-04-16T10:40:56;14.20;;;8.90;;
3433;SDS011;1730;41.932;25.548;2023-04-16T10:43:24;13.63;;;7.40;;
3433;SDS011;1730;41.932;25.548;2023-04-16T10:45:50;7.50;;;6.77;;
3433;SDS011;1730;41.932;25.548;2023-04-16T10:48:17;8.00;;;5.67;;
3433;SDS011;1730;41.932;25.548;2023-04-16T10:50:52;7.83;;;5.47;;
3433;SDS011;1730;41.932;25.548;2023-04-16T10:53:25;10.47;;;5.67;;
3433;SDS011;1730;41.932;25.548;2023-04-16T10:58:34;4.53;;;4.10;;
3433;SDS011;1730;41.932;25.548;2023-04-16T11:01:00;6.93;;;4.50;;
3433;SDS011;1730;41.932;25.548;2023-04-16T11:03:31;4.67;;;3.70;;
3433;SDS011;1730;41.932;25.548;2023-04-16T11:06:09;4.87;;;4.30;;
3433;SDS011;1730;41.932;25.548;2023-04-16T11:08:36;3.83;;;3.40;;
3433;SDS011;1730;41.932;25.548;2023-04-16T11:11:03;7.13;;;4.00;;
3433;SDS011;1730;41.932;25.548;2023-04-16T11:13:30;4.20;;;3.80;;
3433;SDS011;1730;41.932;25.548;2023-04-16T11:15:59;6.40;;;3.33;;
3433;SDS011;1730;41.932;25.548;2023-04-16T11:18:25;7.83;;;4.37;;
3433;SDS011;1730;41.932;25.548;2023-04-16T11:20:51;7.40;;;4.40;;
3433;SDS011;1730;41.932;25.548;2023-04-16T11:23:17;6.70;;;3.50;;
3433;SDS011;1730;41.932;25.548;2023-04-16T11:25:43;13.07;;;5.13;;
3433;SDS011;1730;41.932;25.548;2023-04-16T11:28:09;7.50;;;4.10;;
3433;SDS011;1730;41.932;25.548;2023-04-16T11:30:35;7.13;;;4.33;;
3433;SDS011;1730;41.932;25.548;2023-04-16T11:33:08;6.87;;;4.00;;
3433;SDS011;1730;41.932;25.548;2023-04-16T11:35:38;7.30;;;3.43;;
3433;SDS011;1730;41.932;25.548;2023-04-16T11:38:04;6.77;;;4.37;;
3433;SDS011;1730;41.932;25.548;2023-04-16T11:40:32;5.93;;;3.90;;
3433;SDS011;1730;41.932;25.548;2023-04-16T11:43:02;8.33;;;4.60;;
3433;SDS011;1730;41.932;25.548;2023-04-16T11:45:37;8.10;;;4.03;;
3433;SDS011;1730;41.932;25.548;2023-04-16T11:48:02;5.87;;;4.03;;
3433;SDS011;1730;41.932;25.548;2023-04-16T11:50:28;7.33;;;4.37;;
3433;SDS011;1730;41.932;25.548;2023-04-16T11:52:55;8.83;;;4.00;;
3433;SDS011;1730;41.932;25.548;2023-04-16T11:55:22;7.17;;;5.13;;
3433;SDS011;1730;41.932;25.548;2023-04-16T11:57:48;5.10;;;4.60;;
3433;SDS011;1730;41.932;25.548;2023-04-16T12:00:15;9.70;;;5.17;;
3433;SDS011;1730;41.932;25.548;2023-04-16T12:02:50;7.53;;;4.50;;
3433;SDS011;1730;41.932;25.548;2023-04-16T12:05:36;11.67;;;5.30;;
3433;SDS011;1730;41.932;25.548;2023-04-16T12:08:04;7.30;;;4.77;;
3433;SDS011;1730;41.932;25.548;2023-04-16T12:10:33;8.27;;;4.80;;
3433;SDS011;1730;41.932;25.548;2023-04-16T12:13:12;7.87;;;5.23;;
3433;SDS011;1730;41.932;25.548;2023-04-16T12:15:46;9.70;;;5.10;;
3433;SDS011;1730;41.932;25.548;2023-04-16T12:18:12;5.33;;;4.73;;
3433;SDS011;1730;41.932;25.548;2023-04-16T12:20:39;10.77;;;4.80;;
3433;SDS011;1730;41.932;25.548;2023-04-16T12:23:08;7.70;;;4.90;;
3433;SDS011;1730;41.932;25.548;2023-04-16T12:25:35;6.60;;;4.43;;
3433;SDS011;1730;41.932;25.548;2023-04-16T12:28:01;6.63;;;4.60;;
3433;SDS011;1730;41.932;25.548;2023-04-16T12:30:27;4.80;;;3.70;;
3433;SDS011;1730;41.932;25.548;2023-04-16T12:35:40;9.53;;;4.40;;
3433;SDS011;1730;41.932;25.548;2023-04-16T12:38:08;5.43;;;3.80;;
3433;SDS011;1730;41.932;25.548;2023-04-16T12:40:33;9.90;;;4.77;;
3433;SDS011;1730;41.932;25.548;2023-04-16T12:43:00;7.83;;;4.03;;
3433;SDS011;1730;41.932;25.548;2023-04-16T12:45:26;5.63;;;4.20;;
3433;SDS011;1730;41.932;25.548;2023-04-16T12:47:52;7.80;;;4.60;;
3433;SDS011;1730;41.932;25.548;2023-04-16T12:50:17;10.23;;;4.60;;
3433;SDS011;1730;41.932;25.548;2023-04-16T12:52:43;11.70;;;4.90;;
3433;SDS011;1730;41.932;25.548;2023-04-16T12:55:09;6.80;;;4.83;;
3433;SDS011;1730;41.932;25.548;2023-04-16T12:57:34;6.33;;;4.27;;
3433;SDS011;1730;41.932;25.548;2023-04-16T13:00:00;7.17;;;4.37;;
3433;SDS011;1730;41.932;25.548;2023-04-16T13:02:25;9.37;;;4.53;;
3433;SDS011;1730;41.932;25.548;2023-04-16T13:04:51;4.20;;;3.80;;
3433;SDS011;1730;41.932;25.548;2023-04-16T13:07:18;7.80;;;3.87;;
3433;SDS011;1730;41.932;25.548;2023-04-16T13:09:44;12.00;;;4.40;;
3433;SDS011;1730;41.932;25.548;2023-04-16T13:12:10;8.93;;;3.57;;
3433;SDS011;1730;41.932;25.548;2023-04-16T13:14:36;5.53;;;3.40;;
3433;SDS011;1730;41.932;25.548;2023-04-16T13:17:01;7.43;;;3.60;;
3433;SDS011;1730;41.932;25.548;2023-04-16T13:19:28;3.53;;;3.10;;
3433;SDS011;1730;41.932;25.548;2023-04-16T13:21:54;4.17;;;3.23;;
3433;SDS011;1730;41.932;25.548;2023-04-16T13:24:19;6.00;;;3.30;;
3433;SDS011;1730;41.932;25.548;2023-04-16T13:26:45;3.73;;;3.33;;
3433;SDS011;1730;41.932;25.548;2023-04-16T13:29:11;6.30;;;3.60;;
3433;SDS011;1730;41.932;25.548;2023-04-16T13:31:36;8.67;;;2.90;;
3433;SDS011;1730;41.932;25.548;2023-04-16T13:34:02;9.23;;;3.60;;
3433;SDS011;1730;41.932;25.548;2023-04-16T13:36:29;7.10;;;3.90;;
3433;SDS011;1730;41.932;25.548;2023-04-16T13:38:56;7.00;;;3.50;;
3433;SDS011;1730;41.932;25.548;2023-04-16T13:41:22;5.70;;;3.67;;
3433;SDS011;1730;41.932;25.548;2023-04-16T13:43:48;4.70;;;3.23;;
3433;SDS011;1730;41.932;25.548;2023-04-16T13:46:19;4.10;;;2.83;;
3433;SDS011;1730;41.932;25.548;2023-04-16T13:48:45;8.30;;;2.87;;
3433;SDS011;1730;41.932;25.548;2023-04-16T13:51:11;5.07;;;2.80;;
3433;SDS011;1730;41.932;25.548;2023-04-16T13:53:39;7.70;;;4.17;;
3433;SDS011;1730;41.932;25.548;2023-04-16T13:56:05;4.50;;;3.70;;
3433;SDS011;1730;41.932;25.548;2023-04-16T13:58:31;8.93;;;3.70;;
3433;SDS011;1730;41.932;25.548;2023-04-16T14:00:57;7.50;;;3.67;;
3433;SDS011;1730;41.932;25.548;2023-04-16T14:03:23;5.73;;;3.63;;
3433;SDS011;1730;41.932;25.548;2023-04-16T14:05:51;8.70;;;4.27;;
3433;SDS011;1730;41.932;25.548;2023-04-16T14:08:16;12.60;;;4.63;;
3433;SDS011;1730;41.932;25.548;2023-04-16T14:10:42;9.03;;;3.83;;
3433;SDS011;1730;41.932;25.548;2023-04-16T14:13:07;11.00;;;4.40;;
3433;SDS011;1730;41.932;25.548;2023-04-16T14:15:35;5.67;;;3.13;;
3433;SDS011;1730;41.932;25.548;2023-04-16T14:18:00;6.03;;;3.83;;
3433;SDS011;1730;41.932;25.548;2023-04-16T14:20:27;7.37;;;4.57;;
3433;SDS011;1730;41.932;25.548;2023-04-16T14:22:53;6.93;;;3.90;;
3433;SDS011;1730;41.932;25.548;2023-04-16T14:25:18;6.10;;;3.53;;
3433;SDS011;1730;41.932;25.548;2023-04-16T14:27:44;6.90;;;3.87;;
3433;SDS011;1730;41.932;25.548;2023-04-16T14:30:09;9.57;;;4.40;;
3433;SDS011;1730;41.932;25.548;2023-04-16T14:32:35;9.20;;;4.10;;
3433;SDS011;1730;41.932;25.548;2023-04-16T14:35:01;11.10;;;3.47;;
3433;SDS011;1730;41.932;25.548;2023-04-16T14:37:27;6.93;;;4.90;;
3433;SDS011;1730;41.932;25.548;2023-04-16T14:40:03;6.77;;;3.70;;
3433;SDS011;1730;41.932;25.548;2023-04-16T14:42:32;8.13;;;4.27;;
3433;SDS011;1730;41.932;25.548;2023-04-16T14:44:58;8.00;;;4.53;;
3433;SDS011;1730;41.932;25.548;2023-04-16T14:47:24;10.77;;;4.70;;
3433;SDS011;1730;41.932;25.548;2023-04-16T14:49:54;13.07;;;3.57;;
3433;SDS011;1730;41.932;25.548;2023-04-16T14:52:20;8.60;;;4.10;;
3433;SDS011;1730;41.932;25.548;2023-04-16T14:54:45;4.47;;;3.13;;
3433;SDS011;1730;41.932;25.548;2023-04-16T14:57:21;9.77;;;3.67;;
3433;SDS011;1730;41.932;25.548;2023-04-16T14:59:52;4.53;;;3.00;;